createdAt,value
2022-11-22T00:01:58.434Z,49.30
2022-11-22T00:04:59.717Z,49.40
2022-11-22T00:08:01.170Z,49.60
2022-11-22T00:11:02.593Z,49.50
2022-11-22T00:14:04.437Z,49.70
2022-11-22T00:17:06.433Z,49.40
2022-11-22T00:20:11.156Z,49.50
2022-11-22T00:23:12.582Z,49.30
2022-11-22T00:26:14.249Z,49.40
2022-11-22T00:29:15.684Z,49.20
2022-11-22T00:32:17.686Z,49.40
2022-11-22T00:35:19.428Z,49.30
2022-11-22T00:38:21.104Z,49.50
2022-11-22T00:41:22.666Z,49.10
2022-11-22T00:44:24.179Z,49.20
2022-11-22T00:47:26.715Z,49.70
2022-11-22T00:50:29.041Z,49.70
2022-11-22T00:53:30.956Z,50.00
2022-11-22T00:56:32.551Z,49.60
2022-11-22T00:59:33.859Z,49.40
2022-11-22T01:02:36.906Z,49.90
2022-11-22T01:05:39.493Z,67.90
2022-11-22T01:08:40.932Z,67.30
2022-11-22T01:11:43.587Z,49.90
2022-11-22T01:14:45.102Z,49.80
2022-11-22T01:17:47.017Z,49.80
2022-11-22T01:20:48.365Z,50.00
2022-11-22T01:23:49.783Z,50.50
2022-11-22T01:26:51.189Z,50.00
2022-11-22T01:29:52.617Z,50.40
2022-11-22T01:32:54.582Z,50.50
2022-11-22T01:35:57.427Z,50.50
2022-11-22T01:38:58.862Z,50.20
2022-11-22T01:42:00.405Z,50.60
2022-11-22T01:45:17.726Z,50.20
2022-11-22T01:48:25.085Z,49.50
2022-11-22T01:51:32.232Z,49.90
2022-11-22T01:54:38.783Z,50.00
2022-11-22T01:57:42.369Z,49.90
2022-11-22T02:00:44.228Z,49.60
2022-11-22T02:03:49.070Z,49.70
2022-11-22T02:06:57.437Z,49.50
2022-11-22T02:09:58.838Z,68.10
2022-11-22T02:13:01.747Z,49.60
2022-11-22T02:16:03.756Z,49.40
2022-11-22T02:19:13.348Z,49.60
2022-11-22T02:22:24.980Z,49.40
2022-11-22T02:25:29.687Z,49.30
2022-11-22T02:28:36.317Z,49.60
2022-11-22T02:31:40.582Z,49.10
2022-11-22T02:34:45.584Z,49.20
2022-11-22T02:37:48.087Z,49.10
2022-11-22T02:40:52.817Z,49.00
2022-11-22T02:43:54.908Z,49.00
2022-11-22T02:46:56.435Z,48.90
2022-11-22T02:49:57.678Z,48.90
2022-11-22T02:52:59.223Z,49.30
2022-11-22T02:56:00.507Z,49.20
2022-11-22T02:59:02.526Z,49.30
2022-11-22T03:02:03.998Z,49.20
2022-11-22T03:05:05.338Z,48.80
2022-11-22T03:08:06.839Z,49.20
2022-11-22T03:11:08.144Z,49.00
2022-11-22T03:14:10.322Z,48.80
2022-11-22T03:17:13.514Z,48.60
2022-11-22T03:20:15.061Z,48.80
2022-11-22T03:23:16.459Z,49.00
2022-11-22T03:26:17.848Z,49.10
2022-11-22T03:29:19.909Z,48.80
2022-11-22T03:32:21.319Z,48.80
2022-11-22T03:35:22.717Z,48.50
2022-11-22T03:38:24.113Z,48.70
2022-11-22T03:41:25.556Z,49.10
2022-11-22T03:44:27.655Z,49.00
2022-11-22T03:47:29.276Z,48.90
2022-11-22T03:50:30.926Z,48.10
2022-11-22T03:53:32.905Z,48.80
2022-11-22T03:56:34.312Z,48.80
2022-11-22T03:59:36.291Z,47.80
2022-11-22T04:02:37.680Z,47.10
2022-11-22T04:05:39.094Z,47.30
2022-11-22T04:08:40.623Z,65.30
2022-11-22T04:11:42.092Z,47.90
2022-11-22T04:14:58.828Z,48.10
2022-11-22T04:18:00.338Z,48.20
2022-11-22T04:21:12.235Z,47.90
2022-11-22T04:24:23.995Z,48.30
2022-11-22T04:27:25.508Z,48.30
2022-11-22T04:30:42.413Z,48.40
2022-11-22T04:33:43.894Z,48.60
2022-11-22T04:36:45.143Z,48.60
2022-11-22T04:39:46.655Z,48.80
2022-11-22T04:43:02.185Z,48.70
2022-11-22T04:46:04.236Z,48.80
2022-11-22T04:49:05.808Z,48.60
2022-11-22T04:52:22.215Z,49.00
2022-11-22T04:55:23.775Z,48.80
2022-11-22T04:58:25.117Z,48.40
2022-11-22T05:01:27.131Z,49.00
2022-11-22T05:04:28.552Z,48.70
2022-11-22T05:07:30.099Z,48.30
2022-11-22T05:10:52.196Z,48.30
2022-11-22T05:13:53.483Z,48.70
2022-11-22T05:16:55.583Z,48.60
2022-11-22T05:19:57.059Z,48.60
2022-11-22T05:23:12.238Z,48.70
2022-11-22T05:26:13.653Z,49.00
2022-11-22T05:29:15.118Z,48.90
2022-11-22T05:32:17.094Z,48.70
2022-11-22T05:35:18.526Z,48.90
2022-11-22T05:38:20.004Z,48.90
2022-11-22T05:41:21.365Z,48.70
2022-11-22T05:44:23.101Z,49.20
2022-11-22T05:47:25.097Z,49.00
2022-11-22T05:50:26.614Z,48.90
2022-11-22T05:53:28.993Z,48.50
2022-11-22T05:56:30.493Z,48.60
2022-11-22T05:59:32.154Z,48.10
2022-11-22T06:02:34.560Z,48.80
2022-11-22T06:05:36.373Z,48.70
2022-11-22T06:08:40.206Z,65.90
2022-11-22T06:11:41.632Z,48.60
2022-11-22T06:14:45.063Z,48.20
2022-11-22T06:17:47.373Z,48.30
2022-11-22T06:20:48.920Z,48.30
2022-11-22T06:23:50.201Z,48.00
2022-11-22T06:26:51.619Z,48.50
2022-11-22T06:29:53.155Z,48.30
2022-11-22T06:32:56.355Z,48.30
2022-11-22T06:36:01.600Z,48.60
2022-11-22T06:39:03.841Z,48.10
2022-11-22T06:42:05.557Z,48.20
2022-11-22T06:45:07.346Z,48.20
2022-11-22T06:48:09.405Z,48.60
2022-11-22T06:51:12.835Z,48.20
2022-11-22T06:54:14.634Z,48.30
2022-11-22T06:57:16.153Z,48.60
2022-11-22T07:00:18.987Z,47.90
2022-11-22T07:03:20.991Z,48.50
2022-11-22T07:06:23.093Z,48.60
2022-11-22T07:09:24.649Z,48.30
2022-11-22T07:12:25.967Z,48.30
2022-11-22T07:15:27.418Z,49.00
2022-11-22T07:18:29.557Z,48.30
2022-11-22T07:21:31.885Z,48.40
2022-11-22T07:24:33.333Z,48.00
2022-11-22T07:27:34.746Z,48.30
2022-11-22T07:30:39.834Z,48.00
2022-11-22T07:33:44.750Z,48.10
2022-11-22T07:36:46.150Z,48.20
2022-11-22T07:39:47.606Z,48.30
2022-11-22T07:42:48.943Z,48.10
2022-11-22T07:45:50.735Z,48.80
2022-11-22T07:48:52.966Z,48.30
2022-11-22T07:51:54.554Z,48.20
2022-11-22T07:54:55.829Z,48.40
2022-11-22T07:57:58.874Z,48.80
2022-11-22T08:01:05.816Z,48.30
2022-11-22T08:04:08.865Z,48.40
2022-11-22T08:07:10.554Z,49.10
2022-11-22T08:10:12.499Z,48.60
2022-11-22T08:13:14.310Z,48.00
2022-11-22T08:16:17.886Z,48.20
2022-11-22T08:19:20.456Z,49.60
2022-11-22T08:22:22.083Z,48.70
2022-11-22T08:25:23.697Z,48.60
2022-11-22T08:28:25.264Z,49.10
2022-11-22T08:31:27.693Z,48.80
2022-11-22T08:34:29.770Z,49.30
2022-11-22T08:37:31.408Z,48.70
2022-11-22T08:40:39.547Z,49.50
2022-11-22T08:43:43.841Z,47.10
2022-11-22T08:46:45.544Z,49.80
2022-11-22T08:49:47.959Z,48.60
2022-11-22T08:52:49.740Z,49.00
2022-11-22T08:55:51.499Z,47.60
2022-11-22T08:58:54.033Z,48.80
2022-11-22T09:01:57.030Z,48.80
2022-11-22T09:05:00.390Z,48.80
2022-11-22T09:11:30.251Z,48.60
2022-11-22T09:14:37.008Z,49.80
2022-11-22T09:17:46.626Z,49.60
2022-11-22T09:20:56.405Z,48.20
2022-11-22T09:23:57.966Z,48.40
2022-11-22T09:26:59.514Z,48.50
2022-11-22T09:30:00.932Z,48.40
2022-11-22T09:33:03.662Z,48.10
2022-11-22T09:36:08.040Z,48.20
2022-11-22T09:39:10.620Z,47.90
2022-11-22T09:42:28.105Z,48.50
2022-11-22T09:45:42.901Z,48.00
2022-11-22T09:49:07.771Z,48.10
2022-11-22T09:52:18.437Z,47.90
2022-11-22T10:00:29.824Z,47.40
2022-11-22T10:03:41.617Z,47.60
2022-11-22T10:06:45.777Z,48.20
2022-11-22T10:09:52.869Z,48.10
2022-11-22T10:13:02.127Z,48.30
2022-11-22T10:16:13.858Z,48.50
2022-11-22T10:19:22.297Z,48.20
2022-11-22T10:22:27.573Z,48.10
2022-11-22T10:25:39.097Z,47.90
2022-11-22T10:28:53.830Z,48.20
2022-11-22T10:32:14.990Z,48.50
2022-11-22T10:54:43.272Z,47.00
2022-11-22T10:58:23.904Z,66.60
2022-11-22T11:02:20.947Z,46.70
2022-11-22T11:10:10.664Z,46.40
2022-11-22T11:13:23.018Z,48.50
2022-11-22T11:16:29.501Z,48.40
2022-11-22T11:19:37.175Z,47.60
2022-11-22T11:23:13.055Z,47.40
2022-11-22T11:26:20.132Z,48.00
2022-11-22T11:29:42.085Z,47.40
2022-11-22T11:32:51.784Z,47.40
2022-11-22T11:35:57.132Z,47.40
2022-11-22T11:38:59.770Z,47.40
2022-11-22T11:42:21.892Z,47.10
2022-11-22T11:45:28.314Z,46.90
2022-11-22T11:48:36.821Z,46.80
2022-11-22T11:51:42.208Z,46.70
2022-11-22T11:54:45.851Z,46.40
2022-11-22T12:11:49.086Z,43.40
2022-11-22T12:15:12.105Z,46.60
2022-11-22T12:18:29.991Z,46.30
2022-11-22T12:21:41.633Z,46.30
2022-11-22T12:25:09.757Z,46.10
2022-11-22T12:28:17.648Z,46.40
2022-11-22T12:31:29.260Z,46.20
2022-11-22T12:34:33.382Z,46.00
2022-11-22T12:37:41.578Z,46.70
2022-11-22T12:40:46.920Z,46.40
2022-11-22T12:43:55.634Z,46.10
2022-11-22T12:47:00.852Z,46.20
2022-11-22T12:50:08.839Z,45.90
2022-11-22T12:53:38.745Z,46.10
2022-11-22T12:56:47.948Z,44.90
2022-11-22T12:59:58.325Z,45.70
2022-11-22T13:03:03.959Z,47.10
2022-11-22T13:06:10.425Z,45.90
2022-11-22T13:09:48.481Z,46.10
2022-11-22T13:12:52.506Z,44.60
2022-11-22T13:15:58.367Z,47.30
2022-11-22T13:19:06.006Z,46.80
2022-11-22T13:22:28.835Z,45.90
2022-11-22T13:25:45.490Z,43.70
2022-11-22T13:28:48.337Z,45.70
2022-11-22T13:32:05.092Z,45.70
2022-11-22T13:35:21.586Z,45.30
2022-11-22T13:38:24.284Z,45.40
2022-11-22T13:41:30.498Z,45.40
2022-11-22T13:44:38.423Z,45.30
2022-11-22T13:47:43.099Z,45.00
2022-11-22T13:51:03.564Z,45.40
2022-11-22T13:54:23.620Z,45.10
2022-11-22T13:57:29.498Z,45.00
2022-11-22T14:00:40.856Z,44.60
2022-11-22T14:03:44.778Z,44.90
2022-11-22T14:06:49.337Z,45.10
2022-11-22T14:09:55.699Z,44.60
2022-11-22T14:13:20.636Z,44.80
2022-11-22T14:16:33.577Z,44.70
2022-11-22T14:19:49.433Z,44.50
2022-11-22T14:22:58.296Z,44.60
2022-11-22T14:26:15.819Z,44.20
2022-11-22T14:29:41.459Z,44.30
2022-11-22T14:32:53.884Z,44.60
2022-11-22T14:36:14.990Z,44.00
2022-11-22T14:39:42.617Z,44.40
2022-11-22T14:42:47.323Z,44.40
2022-11-22T14:45:50.745Z,44.30
2022-11-22T14:48:59.688Z,44.20
2022-11-22T14:52:03.118Z,44.20
2022-11-22T14:55:11.525Z,44.20
2022-11-22T14:58:19.222Z,43.70
2022-11-22T15:01:40.081Z,44.00
2022-11-22T15:09:15.080Z,43.70
2022-11-22T15:09:18.392Z,44.20
2022-11-22T15:12:08.373Z,43.60
2022-11-22T15:59:42.908Z,43.30
2022-11-22T16:02:49.598Z,43.30
2022-11-22T16:06:08.765Z,43.20
2022-11-22T16:09:22.838Z,43.20
2022-11-22T16:12:28.614Z,43.00
2022-11-22T16:15:35.431Z,42.80
2022-11-22T16:18:37.404Z,43.20
2022-11-22T16:21:38.969Z,43.30
2022-11-22T16:24:40.822Z,43.30
2022-11-22T16:27:45.652Z,43.40
2022-11-22T16:30:47.966Z,43.80
2022-11-22T16:33:50.249Z,42.90
2022-11-22T16:36:51.796Z,42.60
2022-11-22T16:39:53.458Z,43.40
2022-11-22T16:42:56.636Z,43.00
2022-11-22T16:45:58.799Z,43.00
2022-11-22T16:49:00.256Z,42.80
2022-11-22T16:52:01.823Z,43.10
2022-11-22T16:55:05.078Z,42.90
2022-11-22T16:58:13.545Z,43.50
2022-11-22T17:01:18.150Z,42.90
2022-11-22T17:04:22.236Z,43.00
2022-11-22T17:07:23.799Z,42.80
2022-11-22T17:10:25.378Z,43.00
2022-11-22T17:13:27.269Z,42.90
2022-11-22T17:16:29.575Z,42.50
2022-11-22T17:19:52.268Z,43.00
2022-11-22T17:22:52.572Z,43.00
2022-11-22T17:25:54.644Z,42.70
2022-11-22T17:28:56.131Z,43.30
2022-11-22T17:31:58.017Z,43.10
2022-11-22T17:34:59.449Z,43.90
2022-11-22T17:38:00.755Z,43.10
2022-11-22T17:41:02.144Z,43.90
2022-11-22T17:47:28.190Z,40.60
2022-11-22T17:50:29.629Z,43.40
2022-11-22T17:53:30.911Z,43.20
2022-11-22T17:56:37.724Z,43.80
2022-11-22T17:59:41.078Z,44.40
2022-11-22T18:02:43.120Z,43.50
2022-11-22T18:05:44.650Z,43.10
2022-11-22T18:08:47.473Z,43.20
2022-11-22T18:11:49.015Z,43.30
2022-11-22T18:14:50.905Z,43.40
2022-11-22T18:17:52.871Z,43.20
2022-11-22T18:20:55.676Z,43.80
2022-11-22T18:23:57.475Z,43.60
2022-11-22T18:26:59.164Z,43.50
2022-11-22T18:30:01.288Z,43.30
2022-11-22T18:33:03.460Z,43.10
2022-11-22T18:39:30.329Z,43.70
2022-11-22T18:42:32.061Z,43.70
2022-11-22T18:45:33.383Z,43.80
2022-11-22T18:48:35.897Z,44.10
2022-11-22T18:51:37.383Z,43.90
2022-11-22T18:54:38.623Z,43.80
2022-11-22T18:57:40.250Z,44.10
2022-11-22T19:00:41.907Z,43.90
2022-11-22T19:03:44.210Z,44.10
2022-11-22T19:06:45.779Z,44.00
2022-11-22T19:09:47.127Z,44.50
2022-11-22T19:12:48.546Z,44.00
2022-11-22T19:15:50.165Z,44.50
2022-11-22T19:18:52.204Z,44.70
2022-11-22T19:21:53.656Z,44.90
2022-11-22T19:24:55.062Z,44.40
2022-11-22T19:27:56.676Z,45.00
2022-11-22T19:31:01.938Z,44.70
2022-11-22T19:34:04.034Z,45.00
2022-11-22T19:37:05.526Z,45.20
2022-11-22T19:40:07.221Z,45.20
2022-11-22T19:43:12.267Z,45.40
2022-11-22T19:46:19.043Z,45.80
2022-11-22T19:49:21.089Z,45.20
2022-11-22T19:52:22.467Z,45.60
2022-11-22T19:55:23.841Z,45.40
2022-11-22T19:58:25.431Z,45.70
2022-11-22T20:01:29.393Z,45.70
2022-11-22T20:04:31.616Z,45.80
2022-11-22T20:07:33.985Z,45.80
2022-11-22T20:10:37.520Z,46.20
2022-11-22T20:13:41.863Z,45.90
2022-11-22T20:16:43.838Z,45.80
2022-11-22T20:19:45.906Z,46.00
2022-11-22T20:22:47.375Z,45.90
2022-11-22T20:26:22.501Z,45.90
2022-11-22T20:29:24.347Z,43.30
2022-11-22T20:32:25.833Z,46.30
2022-11-22T20:35:27.679Z,46.40
2022-11-22T20:38:31.614Z,46.40
2022-11-22T20:41:33.096Z,46.80
2022-11-22T20:44:34.362Z,46.50
2022-11-22T20:47:35.807Z,47.00
2022-11-22T20:50:37.887Z,46.70
2022-11-22T20:53:39.384Z,46.50
2022-11-22T20:56:40.668Z,47.00
2022-11-22T20:59:42.643Z,47.10
2022-11-22T21:02:44.155Z,45.80
2022-11-22T21:05:46.629Z,46.90
2022-11-22T21:08:48.601Z,47.20
2022-11-22T21:11:50.099Z,47.20
2022-11-22T21:14:53.826Z,47.20
2022-11-22T21:18:23.015Z,46.90
2022-11-22T21:21:21.868Z,47.20
2022-11-22T21:24:23.335Z,47.20
2022-11-22T21:27:24.650Z,47.70
2022-11-22T21:30:26.207Z,47.40
2022-11-22T21:33:28.887Z,47.10
2022-11-22T21:36:30.910Z,47.60
2022-11-22T21:39:32.395Z,47.80
2022-11-22T21:42:33.965Z,47.80
2022-11-22T21:45:35.409Z,47.20
2022-11-22T21:48:36.947Z,47.80
2022-11-22T21:51:39.036Z,47.40
2022-11-22T21:54:40.602Z,47.50
2022-11-22T21:57:41.999Z,47.90
2022-11-22T22:00:43.897Z,48.20
2022-11-22T22:03:45.188Z,48.30
2022-11-22T22:06:47.127Z,48.30
2022-11-22T22:09:48.676Z,48.30
2022-11-22T22:12:50.447Z,48.10
2022-11-22T22:15:55.115Z,48.50
2022-11-22T22:18:56.501Z,48.50
2022-11-22T22:21:58.508Z,48.50
2022-11-22T22:24:59.886Z,48.60
2022-11-22T22:28:01.325Z,49.00
2022-11-22T22:31:05.811Z,48.90
2022-11-22T22:34:07.369Z,49.20
2022-11-22T22:37:09.371Z,48.90
2022-11-22T22:40:11.304Z,49.30
2022-11-22T22:43:12.698Z,49.40
2022-11-22T22:46:15.574Z,49.40
2022-11-22T22:49:16.932Z,49.10
2022-11-22T22:52:18.979Z,49.70
2022-11-22T22:55:20.469Z,49.70
2022-11-22T22:58:22.097Z,49.90
2022-11-22T23:01:25.490Z,50.30
2022-11-22T23:04:26.953Z,49.80
2022-11-22T23:07:29.283Z,50.30
2022-11-22T23:10:32.032Z,50.00
2022-11-22T23:13:35.006Z,50.10
2022-11-22T23:16:37.705Z,50.50
2022-11-22T23:19:39.082Z,50.70
2022-11-22T23:22:41.135Z,51.00
2022-11-22T23:25:42.669Z,51.10
2022-11-22T23:28:43.914Z,51.10
2022-11-22T23:31:45.487Z,51.50
2022-11-22T23:34:46.757Z,51.10
2022-11-22T23:37:48.936Z,51.70
2022-11-22T23:40:52.736Z,51.80
2022-11-22T23:43:55.776Z,51.60
2022-11-22T23:46:57.219Z,51.80
2022-11-22T23:49:58.625Z,52.30
2022-11-22T23:53:00.746Z,52.60
2022-11-22T23:56:05.529Z,52.20
2022-11-22T23:59:07.267Z,52.40
